Time;durP1;ratioP1;P1;durP2;ratioP2;P2;SDS_P1;SDS_P2;PMS_P1;PMS_P2;Temp;Humidity;BMP_temperature;BMP_pressure;BME280_temperature;BME280_humidity;BME280_pressure;Samples;Min_cycle;Max_cycle;Signal;HPM_P1;HPM_P2
2022/07/02 00:01:15;;;;;;;1.08;0.80;;;;;;;;;;5033816;28;20079;-61
2022/07/02 00:03:43;;;;;;;1.00;0.70;;;;;;;;;;5030275;28;20048;-62
2022/07/02 00:06:10;;;;;;;1.15;0.70;;;;;;;;;;5032818;28;20022;-64
2022/07/02 00:08:37;;;;;;;2.22;0.80;;;;;;;;;;5031946;28;20021;-63
2022/07/02 00:11:03;;;;;;;0.60;0.60;;;;;;;;;;5014068;28;20425;-64
2022/07/02 00:13:29;;;;;;;1.58;1.08;;;;;;;;;;5032792;28;20034;-61
2022/07/02 00:15:55;;;;;;;1.08;0.77;;;;;;;;;;5032246;28;20017;-64
2022/07/02 00:18:21;;;;;;;1.27;0.70;;;;;;;;;;5033044;28;20033;-63
2022/07/02 00:20:48;;;;;;;0.70;0.50;;;;;;;;;;5030792;28;20021;-62
2022/07/02 00:23:14;;;;;;;0.85;0.65;;;;;;;;;;5032699;28;20104;-61
2022/07/02 00:25:41;;;;;;;1.63;0.60;;;;;;;;;;5031906;28;20120;-62
2022/07/02 00:28:07;;;;;;;2.13;0.60;;;;;;;;;;5032589;28;20028;-66
2022/07/02 00:30:34;;;;;;;1.05;0.60;;;;;;;;;;5031628;28;20033;-58
2022/07/02 00:33:01;;;;;;;0.85;0.57;;;;;;;;;;5031407;28;20021;-65
2022/07/02 00:35:27;;;;;;;0.65;0.55;;;;;;;;;;5030672;28;20541;-67
2022/07/02 00:37:53;;;;;;;1.85;0.50;;;;;;;;;;5031948;28;20610;-68
2022/07/02 00:40:19;;;;;;;1.23;0.60;;;;;;;;;;5032388;28;20038;-68
2022/07/02 00:42:46;;;;;;;0.80;0.70;;;;;;;;;;5031778;28;20497;-68
2022/07/02 00:45:12;;;;;;;1.63;0.52;;;;;;;;;;5032504;28;20628;-70
2022/07/02 00:47:41;;;;;;;0.50;0.50;;;;;;;;;;5029524;28;20062;-69
2022/07/02 00:50:07;;;;;;;0.80;0.70;;;;;;;;;;5030958;28;20045;-68
2022/07/02 00:52:34;;;;;;;1.13;0.50;;;;;;;;;;5029913;28;20639;-59
2022/07/02 00:55:00;;;;;;;2.90;0.60;;;;;;;;;;5031933;28;20037;-60
2022/07/02 00:57:26;;;;;;;1.23;0.60;;;;;;;;;;5030267;28;20038;-59
2022/07/02 00:59:52;;;;;;;0.70;0.55;;;;;;;;;;5027594;28;20041;-58
2022/07/02 01:02:21;;;;;;;1.63;0.50;;;;;;;;;;5031208;28;20025;-57
2022/07/02 01:04:48;;;;;;;2.63;0.63;;;;;;;;;;5026349;28;20040;-58
2022/07/02 01:07:15;;;;;;;0.95;0.45;;;;;;;;;;5031118;28;20053;-60
2022/07/02 01:12:31;;;;;;;1.30;0.60;;;;;;;;;;5030415;28;20033;-60
2022/07/02 01:14:58;;;;;;;1.13;0.60;;;;;;;;;;5030689;28;20017;-59
2022/07/02 01:17:24;;;;;;;0.73;0.60;;;;;;;;;;5028222;28;20040;-60
2022/07/02 01:19:50;;;;;;;1.00;0.60;;;;;;;;;;5024298;28;20092;-60
2022/07/02 01:22:16;;;;;;;1.08;0.65;;;;;;;;;;5029687;28;20013;-60
2022/07/02 01:24:43;;;;;;;0.73;0.63;;;;;;;;;;5028804;28;20455;-60
2022/07/02 01:27:10;;;;;;;1.58;0.52;;;;;;;;;;5027490;28;20025;-59
2022/07/02 01:29:36;;;;;;;0.50;0.50;;;;;;;;;;5027825;28;20021;-58
2022/07/02 01:32:03;;;;;;;0.70;0.50;;;;;;;;;;5030538;28;20125;-59
2022/07/02 01:34:29;;;;;;;1.20;0.60;;;;;;;;;;5028563;28;20060;-59
2022/07/02 01:36:55;;;;;;;1.27;0.60;;;;;;;;;;5028919;28;20628;-57
2022/07/02 01:39:25;;;;;;;3.03;0.70;;;;;;;;;;5023938;28;20037;-60
2022/07/02 01:41:50;;;;;;;0.60;0.50;;;;;;;;;;5029740;28;20083;-60
2022/07/02 01:44:16;;;;;;;1.52;0.50;;;;;;;;;;5029843;28;20017;-60
2022/07/02 01:46:44;;;;;;;1.73;0.52;;;;;;;;;;5028006;28;20041;-60
2022/07/02 01:49:10;;;;;;;0.85;0.50;;;;;;;;;;5031144;28;20056;-60
2022/07/02 01:51:36;;;;;;;0.80;0.50;;;;;;;;;;5013686;28;20049;-58
2022/07/02 01:54:03;;;;;;;1.38;0.60;;;;;;;;;;5031974;28;20465;-60
2022/07/02 01:56:31;;;;;;;1.27;0.50;;;;;;;;;;5030739;28;20037;-60
2022/07/02 01:58:57;;;;;;;0.98;0.60;;;;;;;;;;5030962;28;20108;-60
2022/07/02 02:01:23;;;;;;;3.40;0.70;;;;;;;;;;5031808;28;20096;-60
2022/07/02 02:03:49;;;;;;;1.08;0.60;;;;;;;;;;5029823;28;20040;-60
2022/07/02 02:06:15;;;;;;;0.98;0.50;;;;;;;;;;5031993;28;20091;-60
2022/07/02 02:08:41;;;;;;;0.85;0.50;;;;;;;;;;5031184;28;20100;-60
2022/07/02 02:11:07;;;;;;;1.17;0.68;;;;;;;;;;5031249;28;20394;-60
2022/07/02 02:13:33;;;;;;;2.00;0.38;;;;;;;;;;5030236;28;20029;-59
2022/07/02 02:15:59;;;;;;;1.27;0.60;;;;;;;;;;5030780;28;20022;-61
2022/07/02 02:18:25;;;;;;;0.60;0.50;;;;;;;;;;5031526;28;20048;-61
2022/07/02 02:20:51;;;;;;;0.60;0.50;;;;;;;;;;5030780;28;20025;-61
2022/07/02 02:23:17;;;;;;;1.33;0.70;;;;;;;;;;5031247;28;20018;-61
2022/07/02 02:25:43;;;;;;;1.27;0.60;;;;;;;;;;5030894;28;20029;-61
2022/07/02 02:28:09;;;;;;;0.85;0.60;;;;;;;;;;5032182;28;20029;-61
2022/07/02 02:30:35;;;;;;;0.60;0.47;;;;;;;;;;5028539;28;20481;-58
2022/07/02 02:33:01;;;;;;;1.58;0.57;;;;;;;;;;5029758;28;20017;-61
2022/07/02 02:35:27;;;;;;;0.75;0.40;;;;;;;;;;5031528;28;20050;-61
2022/07/02 02:37:54;;;;;;;0.98;0.85;;;;;;;;;;5030084;28;20801;-60
2022/07/02 02:40:20;;;;;;;0.85;0.50;;;;;;;;;;5031209;28;20033;-61
2022/07/02 02:42:46;;;;;;;0.65;0.55;;;;;;;;;;5029674;28;20715;-59
2022/07/02 02:45:12;;;;;;;0.70;0.50;;;;;;;;;;5031604;28;20021;-60
2022/07/02 02:47:39;;;;;;;0.43;0.40;;;;;;;;;;5005631;28;20041;-58
2022/07/02 02:50:05;;;;;;;0.77;0.60;;;;;;;;;;5029552;28;20029;-63
2022/07/02 02:52:31;;;;;;;0.88;0.50;;;;;;;;;;5031559;28;20022;-60
2022/07/02 02:54:57;;;;;;;0.55;0.55;;;;;;;;;;5030739;28;20013;-60
2022/07/02 02:57:23;;;;;;;1.67;0.60;;;;;;;;;;5031679;28;20112;-60
2022/07/02 02:59:49;;;;;;;1.00;0.50;;;;;;;;;;5034313;28;20105;-60
2022/07/02 03:02:15;;;;;;;0.63;0.40;;;;;;;;;;5032591;28;20028;-60
2022/07/02 03:04:41;;;;;;;1.58;0.50;;;;;;;;;;5034302;28;20108;-59
2022/07/02 03:07:07;;;;;;;0.85;0.50;;;;;;;;;;5035084;28;20522;-60
2022/07/02 03:09:33;;;;;;;1.17;0.47;;;;;;;;;;5035217;28;20070;-61
2022/07/02 03:11:59;;;;;;;0.50;0.40;;;;;;;;;;5034256;28;20025;-61
2022/07/02 03:14:25;;;;;;;1.38;0.60;;;;;;;;;;5034663;28;20173;-60
2022/07/02 03:16:51;;;;;;;1.00;0.50;;;;;;;;;;5034019;28;20087;-61
2022/07/02 03:19:17;;;;;;;2.20;0.50;;;;;;;;;;5034830;28;20355;-60
2022/07/02 03:21:43;;;;;;;1.23;0.63;;;;;;;;;;5033321;28;20029;-60
2022/07/02 03:24:09;;;;;;;0.47;0.47;;;;;;;;;;5034922;28;20018;-61
2022/07/02 03:26:35;;;;;;;1.85;0.80;;;;;;;;;;5034736;28;20390;-61
2022/07/02 03:29:01;;;;;;;0.55;0.50;;;;;;;;;;5034012;28;20037;-61
2022/07/02 03:31:27;;;;;;;0.70;0.40;;;;;;;;;;5034418;28;20029;-61
2022/07/02 03:33:53;;;;;;;0.73;0.52;;;;;;;;;;5029570;28;20041;-61
2022/07/02 03:36:19;;;;;;;1.10;0.60;;;;;;;;;;5013523;28;20046;-61
2022/07/02 03:38:45;;;;;;;0.80;0.60;;;;;;;;;;5014037;28;20030;-60
2022/07/02 03:41:11;;;;;;;2.05;0.93;;;;;;;;;;5014097;28;20378;-60
2022/07/02 03:43:37;;;;;;;1.58;0.50;;;;;;;;;;5014908;28;20050;-59
2022/07/02 03:46:03;;;;;;;0.60;0.50;;;;;;;;;;5013893;28;20073;-59
2022/07/02 03:48:29;;;;;;;0.50;0.45;;;;;;;;;;5010544;28;20050;-59
2022/07/02 03:50:55;;;;;;;1.05;0.60;;;;;;;;;;5013922;28;20081;-60
2022/07/02 03:53:21;;;;;;;0.50;0.50;;;;;;;;;;5014158;28;20034;-59
2022/07/02 03:55:47;;;;;;;0.50;0.50;;;;;;;;;;5013350;28;20032;-59
2022/07/02 03:58:13;;;;;;;1.10;0.55;;;;;;;;;;5014112;28;20117;-59
2022/07/02 04:00:39;;;;;;;0.70;0.50;;;;;;;;;;5014231;28;20018;-58
2022/07/02 04:03:05;;;;;;;0.80;0.70;;;;;;;;;;5011969;28;20022;-59
2022/07/02 04:05:31;;;;;;;0.52;0.52;;;;;;;;;;5014123;28;20061;-59
2022/07/02 04:07:57;;;;;;;2.92;0.70;;;;;;;;;;5013226;28;20502;-59
2022/07/02 04:10:23;;;;;;;1.10;0.60;;;;;;;;;;5016961;28;20030;-59
2022/07/02 04:12:49;;;;;;;0.80;0.52;;;;;;;;;;5010284;28;20030;-59
2022/07/02 04:15:15;;;;;;;0.55;0.50;;;;;;;;;;5014172;28;20026;-60
2022/07/02 04:17:41;;;;;;;1.00;0.73;;;;;;;;;;5013670;28;20045;-58
2022/07/02 04:20:07;;;;;;;1.77;1.40;;;;;;;;;;5013629;28;20034;-60
2022/07/02 04:22:34;;;;;;;1.83;0.63;;;;;;;;;;5014386;28;20385;-59
2022/07/02 04:24:59;;;;;;;0.70;0.47;;;;;;;;;;5012785;28;20442;-59
2022/07/02 04:27:25;;;;;;;0.63;0.50;;;;;;;;;;5013531;28;20026;-59
2022/07/02 04:29:51;;;;;;;0.43;0.40;;;;;;;;;;5013197;28;20022;-59
2022/07/02 04:32:17;;;;;;;0.63;0.50;;;;;;;;;;5011476;28;20037;-61
2022/07/02 04:34:43;;;;;;;1.15;0.60;;;;;;;;;;5021619;28;20058;-58
2022/07/02 04:37:09;;;;;;;1.23;0.63;;;;;;;;;;5033365;28;20041;-60
2022/07/02 04:39:35;;;;;;;0.57;0.40;;;;;;;;;;5033343;28;20037;-59
2022/07/02 04:42:01;;;;;;;0.73;0.50;;;;;;;;;;5031552;28;20189;-60
2022/07/02 04:44:27;;;;;;;3.90;1.15;;;;;;;;;;5032022;28;20506;-59
2022/07/02 04:46:55;;;;;;;2.70;0.50;;;;;;;;;;5031814;28;20109;-60
2022/07/02 04:49:21;;;;;;;1.13;0.73;;;;;;;;;;5033049;28;20044;-59
2022/07/02 04:51:47;;;;;;;0.60;0.60;;;;;;;;;;5032362;28;20030;-60
2022/07/02 04:54:13;;;;;;;1.58;0.50;;;;;;;;;;5033224;28;20100;-60
2022/07/02 04:56:39;;;;;;;1.08;0.60;;;;;;;;;;5032853;28;20140;-61
2022/07/02 04:59:05;;;;;;;0.82;0.70;;;;;;;;;;5032292;28;20622;-61
2022/07/02 05:01:31;;;;;;;1.00;0.68;;;;;;;;;;5032126;28;20025;-61
2022/07/02 05:03:57;;;;;;;1.63;1.42;;;;;;;;;;5030243;28;20041;-60
2022/07/02 05:06:23;;;;;;;0.70;0.52;;;;;;;;;;5033426;28;20034;-60
2022/07/02 05:08:49;;;;;;;1.20;0.70;;;;;;;;;;5026962;28;20356;-58
2022/07/02 05:11:16;;;;;;;1.50;0.80;;;;;;;;;;5027361;28;20033;-59
2022/07/02 05:13:45;;;;;;;1.00;0.75;;;;;;;;;;5025630;28;20037;-58
2022/07/02 05:16:11;;;;;;;1.00;0.65;;;;;;;;;;5029817;28;20517;-60
2022/07/02 05:18:37;;;;;;;1.65;0.60;;;;;;;;;;5025825;28;20034;-60
2022/07/02 05:21:03;;;;;;;1.33;0.60;;;;;;;;;;5030210;28;20044;-60
2022/07/02 05:23:29;;;;;;;1.85;0.60;;;;;;;;;;5031363;28;20029;-59
2022/07/02 05:25:55;;;;;;;2.58;0.85;;;;;;;;;;5030292;28;20492;-60
2022/07/02 05:28:21;;;;;;;1.70;0.70;;;;;;;;;;5031137;28;20039;-61
2022/07/02 05:30:47;;;;;;;1.23;0.68;;;;;;;;;;5028938;28;20057;-59
2022/07/02 05:33:13;;;;;;;0.82;0.50;;;;;;;;;;5027354;28;20374;-60
2022/07/02 05:35:39;;;;;;;3.67;0.70;;;;;;;;;;5025381;28;20046;-64
2022/07/02 05:38:05;;;;;;;2.47;0.80;;;;;;;;;;5025579;28;20060;-65
2022/07/02 05:40:31;;;;;;;1.77;0.65;;;;;;;;;;5003580;28;20394;-61
2022/07/02 05:42:57;;;;;;;0.85;0.60;;;;;;;;;;5018848;28;20022;-62
2022/07/02 05:45:24;;;;;;;1.08;0.98;;;;;;;;;;5031190;28;20062;-61
2022/07/02 05:47:49;;;;;;;2.42;0.70;;;;;;;;;;5020104;28;20470;-62
2022/07/02 05:50:15;;;;;;;1.80;0.60;;;;;;;;;;5030390;28;20092;-62
2022/07/02 05:52:41;;;;;;;3.05;0.50;;;;;;;;;;5031325;28;20079;-60
2022/07/02 05:55:08;;;;;;;1.27;0.40;;;;;;;;;;5029992;28;20302;-60
2022/07/02 05:57:34;;;;;;;6.10;0.77;;;;;;;;;;5031090;28;20072;-60
2022/07/02 06:00:00;;;;;;;1.85;0.50;;;;;;;;;;5030545;28;20049;-61
2022/07/02 06:02:26;;;;;;;3.67;1.10;;;;;;;;;;5028541;28;20045;-61
2022/07/02 06:04:52;;;;;;;1.02;0.50;;;;;;;;;;5028238;28;20021;-62
2022/07/02 06:10:03;;;;;;;1.00;0.60;;;;;;;;;;5024142;28;20061;-60
2022/07/02 06:12:29;;;;;;;1.75;0.50;;;;;;;;;;5031103;28;20034;-63
2022/07/02 06:14:55;;;;;;;1.70;0.57;;;;;;;;;;5030080;28;20056;-61
2022/07/02 06:17:21;;;;;;;2.60;0.52;;;;;;;;;;5030751;28;20117;-62
2022/07/02 06:19:48;;;;;;;0.75;0.50;;;;;;;;;;5030404;28;20029;-60
2022/07/02 06:22:14;;;;;;;0.90;0.55;;;;;;;;;;5031612;28;20041;-61
2022/07/02 06:24:40;;;;;;;2.45;0.70;;;;;;;;;;5033725;28;20033;-61
2022/07/02 06:27:06;;;;;;;2.65;0.40;;;;;;;;;;5029752;28;20046;-61
2022/07/02 06:29:32;;;;;;;3.38;0.80;;;;;;;;;;5030682;28;20025;-63
2022/07/02 06:31:58;;;;;;;3.65;0.73;;;;;;;;;;5027000;28;20099;-62
2022/07/02 06:34:24;;;;;;;2.28;0.60;;;;;;;;;;5032009;28;20065;-63
2022/07/02 06:36:51;;;;;;;2.28;0.60;;;;;;;;;;5029534;28;20057;-61
2022/07/02 06:39:17;;;;;;;2.97;0.60;;;;;;;;;;5030469;28;20038;-63
2022/07/02 06:44:28;;;;;;;1.02;0.60;;;;;;;;;;5031029;28;20042;-62
2022/07/02 06:46:54;;;;;;;0.68;0.60;;;;;;;;;;5022561;28;20030;-65
2022/07/02 06:49:20;;;;;;;0.45;0.40;;;;;;;;;;5031013;28;20100;-64
2022/07/02 06:51:46;;;;;;;0.90;0.40;;;;;;;;;;5030225;28;20160;-72
2022/07/02 06:54:12;;;;;;;1.38;0.50;;;;;;;;;;5029627;28;20455;-67
2022/07/02 06:56:38;;;;;;;1.15;0.65;;;;;;;;;;5029133;28;20104;-61
2022/07/02 06:59:04;;;;;;;0.80;0.70;;;;;;;;;;5029565;28;20024;-62
2022/07/02 07:01:31;;;;;;;2.10;0.50;;;;;;;;;;5029198;28;20041;-62
2022/07/02 07:03:57;;;;;;;0.52;0.40;;;;;;;;;;5029627;28;20017;-59
2022/07/02 07:06:24;;;;;;;3.78;0.50;;;;;;;;;;5030053;28;20483;-62
2022/07/02 07:08:53;;;;;;;2.97;0.65;;;;;;;;;;5025272;28;20153;-60
2022/07/02 07:11:23;;;;;;;2.60;0.95;;;;;;;;;;5029288;28;20033;-68
2022/07/02 07:13:49;;;;;;;1.73;0.70;;;;;;;;;;5027529;28;20021;-60
2022/07/02 07:16:16;;;;;;;1.63;0.50;;;;;;;;;;5028838;28;20503;-61
2022/07/02 07:21:20;;;;;;;0.60;0.50;;;;;;;;;;5029286;28;20037;-59
2022/07/02 07:23:46;;;;;;;1.27;0.40;;;;;;;;;;5028518;28;20057;-60
2022/07/02 07:26:12;;;;;;;0.65;0.50;;;;;;;;;;5026586;28;20072;-60
2022/07/02 07:28:38;;;;;;;1.95;0.60;;;;;;;;;;5020795;28;20033;-60
2022/07/02 07:31:04;;;;;;;1.40;0.40;;;;;;;;;;5027554;28;20041;-61
2022/07/02 07:33:30;;;;;;;0.88;0.52;;;;;;;;;;5024382;28;20042;-60
2022/07/02 07:35:57;;;;;;;2.53;0.40;;;;;;;;;;5027979;28;20056;-62
2022/07/02 07:38:23;;;;;;;3.13;0.55;;;;;;;;;;5028730;28;20508;-60
2022/07/02 07:40:49;;;;;;;0.70;0.50;;;;;;;;;;5027860;28;20770;-64
2022/07/02 07:43:15;;;;;;;1.10;0.60;;;;;;;;;;5029079;28;20095;-60
2022/07/02 07:45:41;;;;;;;1.17;0.45;;;;;;;;;;5032028;28;20056;-62
2022/07/02 07:48:07;;;;;;;5.78;0.80;;;;;;;;;;5031059;28;20028;-65
2022/07/02 07:50:33;;;;;;;1.88;0.50;;;;;;;;;;5030458;28;20040;-60
2022/07/02 07:52:59;;;;;;;0.70;0.57;;;;;;;;;;5028905;28;20037;-64
2022/07/02 07:55:26;;;;;;;2.03;0.45;;;;;;;;;;5032182;28;20108;-60
2022/07/02 07:57:52;;;;;;;0.85;0.50;;;;;;;;;;5028833;28;20049;-61
2022/07/02 08:00:18;;;;;;;0.55;0.50;;;;;;;;;;5029743;28;20474;-61
2022/07/02 08:02:44;;;;;;;0.88;0.73;;;;;;;;;;5029469;28;20112;-60
2022/07/02 08:05:10;;;;;;;0.35;0.35;;;;;;;;;;5031719;28;21113;-61
2022/07/02 08:07:37;;;;;;;1.00;0.50;;;;;;;;;;5033890;28;20112;-62
2022/07/02 08:10:03;;;;;;;0.95;0.70;;;;;;;;;;5032968;28;20036;-62
2022/07/02 08:12:29;;;;;;;4.63;1.00;;;;;;;;;;5033211;28;20037;-61
2022/07/02 08:14:55;;;;;;;3.35;0.70;;;;;;;;;;5032823;28;20017;-61
2022/07/02 08:17:21;;;;;;;1.85;0.50;;;;;;;;;;5033506;28;20045;-62
2022/07/02 08:19:47;;;;;;;2.92;0.70;;;;;;;;;;5032092;28;20026;-62
2022/07/02 08:22:13;;;;;;;4.10;0.57;;;;;;;;;;5032889;28;20031;-61
2022/07/02 08:24:39;;;;;;;2.03;0.65;;;;;;;;;;5033475;28;20025;-61
2022/07/02 08:27:05;;;;;;;3.65;0.88;;;;;;;;;;5032945;28;20032;-61
2022/07/02 08:29:31;;;;;;;5.22;1.38;;;;;;;;;;5033404;28;20382;-62
2022/07/02 08:31:57;;;;;;;5.10;1.30;;;;;;;;;;5031225;28;20021;-61
2022/07/02 08:34:23;;;;;;;3.25;2.20;;;;;;;;;;5033275;28;20046;-63
2022/07/02 08:36:49;;;;;;;5.43;2.17;;;;;;;;;;5031794;28;20037;-63
2022/07/02 08:39:15;;;;;;;6.03;1.73;;;;;;;;;;5031467;28;20032;-62
2022/07/02 08:41:41;;;;;;;5.10;1.80;;;;;;;;;;5033125;28;20025;-65
2022/07/02 08:44:07;;;;;;;3.20;1.98;;;;;;;;;;5029020;28;20025;-63
2022/07/02 08:46:37;;;;;;;4.65;1.70;;;;;;;;;;5032823;28;20129;-62
2022/07/02 08:49:03;;;;;;;2.70;1.48;;;;;;;;;;5029387;28;20025;-65
2022/07/02 08:51:30;;;;;;;2.67;1.33;;;;;;;;;;5030540;28;20029;-64
2022/07/02 08:53:56;;;;;;;3.60;1.40;;;;;;;;;;5031262;28;20032;-60
2022/07/02 08:56:24;;;;;;;2.85;1.05;;;;;;;;;;5032408;28;20382;-67
2022/07/02 08:58:51;;;;;;;2.47;0.90;;;;;;;;;;5032894;28;20082;-65
2022/07/02 09:01:17;;;;;;;3.28;0.80;;;;;;;;;;5031306;28;20093;-61
2022/07/02 09:03:44;;;;;;;2.30;0.90;;;;;;;;;;5031265;28;20379;-62
2022/07/02 09:06:10;;;;;;;4.35;1.55;;;;;;;;;;5032014;28;20025;-62
2022/07/02 09:08:37;;;;;;;2.25;0.93;;;;;;;;;;5031243;28;20036;-63
2022/07/02 09:11:03;;;;;;;1.23;0.80;;;;;;;;;;5031660;28;20121;-61
2022/07/02 09:13:29;;;;;;;5.60;1.80;;;;;;;;;;5029480;28;20370;-49
2022/07/02 09:15:55;;;;;;;4.82;1.33;;;;;;;;;;5031743;28;20406;-67
2022/07/02 09:18:22;;;;;;;4.53;0.77;;;;;;;;;;5031904;28;20044;-55
2022/07/02 09:20:48;;;;;;;1.00;0.70;;;;;;;;;;5031866;28;20033;-57
2022/07/02 09:23:20;;;;;;;1.73;0.60;;;;;;;;;;5030843;28;20073;-59
2022/07/02 09:25:46;;;;;;;0.80;0.60;;;;;;;;;;5027882;28;20117;-59
2022/07/02 09:28:13;;;;;;;1.65;0.50;;;;;;;;;;5030693;28;20433;-50
2022/07/02 09:30:39;;;;;;;1.85;0.40;;;;;;;;;;5031224;28;20048;-54
2022/07/02 09:33:31;;;;;;;2.42;0.70;;;;;;;;;;5027106;28;20378;-54
2022/07/02 09:36:02;;;;;;;1.00;0.43;;;;;;;;;;5011645;28;20068;-57
2022/07/02 09:38:28;;;;;;;1.37;0.77;;;;;;;;;;5009505;28;20108;-56
2022/07/02 09:40:54;;;;;;;1.50;0.50;;;;;;;;;;5001005;28;20618;-54
2022/07/02 09:43:27;;;;;;;2.97;0.68;;;;;;;;;;5009398;28;20030;-58
2022/07/02 09:45:54;;;;;;;1.77;0.52;;;;;;;;;;5003843;28;20653;-53
2022/07/02 09:48:20;;;;;;;0.45;0.45;;;;;;;;;;5000666;28;20030;-58
2022/07/02 09:50:46;;;;;;;0.32;0.32;;;;;;;;;;4999867;28;20486;-56
2022/07/02 09:53:13;;;;;;;0.47;0.40;;;;;;;;;;5006781;28;20043;-52
2022/07/02 09:55:39;;;;;;;1.58;0.40;;;;;;;;;;5004199;28;20026;-59
2022/07/02 09:58:05;;;;;;;0.65;0.50;;;;;;;;;;5008303;28;20091;-57
2022/07/02 10:00:33;;;;;;;1.63;0.55;;;;;;;;;;5016269;28;20045;-56
2022/07/02 10:03:00;;;;;;;1.75;0.60;;;;;;;;;;5003461;28;20037;-62
2022/07/02 10:05:27;;;;;;;1.98;0.55;;;;;;;;;;5010832;28;20108;-54
2022/07/02 10:07:55;;;;;;;1.75;0.55;;;;;;;;;;5004290;28;20030;-55
2022/07/02 10:10:26;;;;;;;0.43;0.40;;;;;;;;;;5011171;28;20037;-54
2022/07/02 10:12:52;;;;;;;2.33;0.50;;;;;;;;;;5009223;28;20117;-55
2022/07/02 10:15:21;;;;;;;0.65;0.40;;;;;;;;;;5003321;28;20037;-57
2022/07/02 10:17:47;;;;;;;0.50;0.50;;;;;;;;;;5014601;28;20042;-56
2022/07/02 10:20:14;;;;;;;0.85;0.60;;;;;;;;;;5001785;28;20026;-54
2022/07/02 10:22:39;;;;;;;0.52;0.43;;;;;;;;;;5006081;28;20081;-59
2022/07/02 10:25:06;;;;;;;0.93;0.50;;;;;;;;;;5002744;28;20089;-54
2022/07/02 10:27:32;;;;;;;0.82;0.70;;;;;;;;;;4997558;28;20046;-58
2022/07/02 10:29:58;;;;;;;0.90;0.45;;;;;;;;;;5010572;28;20475;-64
2022/07/02 10:32:35;;;;;;;2.20;0.52;;;;;;;;;;5008895;28;20053;-54
2022/07/02 10:35:05;;;;;;;0.60;0.43;;;;;;;;;;5016293;28;20058;-54
2022/07/02 10:37:32;;;;;;;1.45;0.65;;;;;;;;;;5011294;28;20061;-53
2022/07/02 10:40:04;;;;;;;2.72;0.60;;;;;;;;;;5010460;28;20045;-63
2022/07/02 10:42:44;;;;;;;0.90;0.55;;;;;;;;;;5009555;28;20049;-58
2022/07/02 10:45:14;;;;;;;0.75;0.50;;;;;;;;;;5009265;28;20077;-57
2022/07/02 10:48:12;;;;;;;0.70;0.40;;;;;;;;;;5016306;28;20044;-59
2022/07/02 10:50:46;;;;;;;0.65;0.50;;;;;;;;;;4972411;28;20038;-55
2022/07/02 10:53:12;;;;;;;0.50;0.50;;;;;;;;;;5009887;28;20491;-56
2022/07/02 10:55:39;;;;;;;1.25;0.40;;;;;;;;;;5010629;28;20038;-59
2022/07/02 10:58:07;;;;;;;2.15;0.50;;;;;;;;;;5012969;28;20042;-55
2022/07/02 11:00:38;;;;;;;1.88;0.47;;;;;;;;;;5010924;28;20025;-61
2022/07/02 11:03:13;;;;;;;0.95;0.50;;;;;;;;;;5008382;28;20070;-52
2022/07/02 11:05:52;;;;;;;3.38;1.08;;;;;;;;;;5010816;28;20025;-52
2022/07/02 11:08:33;;;;;;;0.85;0.30;;;;;;;;;;5008960;28;20049;-58
2022/07/02 11:10:59;;;;;;;0.77;0.40;;;;;;;;;;5009888;28;20048;-68
2022/07/02 11:13:33;;;;;;;1.08;0.65;;;;;;;;;;5010208;28;20042;-56
2022/07/02 11:15:59;;;;;;;0.82;0.40;;;;;;;;;;5010363;28;20018;-66
2022/07/02 11:18:27;;;;;;;1.83;0.88;;;;;;;;;;5011014;28;20505;-55
2022/07/02 11:20:53;;;;;;;1.42;0.70;;;;;;;;;;5014471;28;20029;-51
2022/07/02 11:23:19;;;;;;;1.10;0.68;;;;;;;;;;5016434;28;20045;-55
2022/07/02 11:25:45;;;;;;;1.90;0.63;;;;;;;;;;5013998;28;20029;-56
2022/07/02 11:28:14;;;;;;;0.98;0.60;;;;;;;;;;5018439;28;20038;-51
2022/07/02 11:30:40;;;;;;;3.10;0.60;;;;;;;;;;5013999;28;20117;-60
2022/07/02 11:33:13;;;;;;;3.15;0.70;;;;;;;;;;5012221;28;20068;-57
2022/07/02 11:35:41;;;;;;;1.50;0.60;;;;;;;;;;5028196;28;20148;-55
2022/07/02 11:38:07;;;;;;;2.05;0.70;;;;;;;;;;5032977;28;20041;-52
2022/07/02 11:40:33;;;;;;;0.80;0.65;;;;;;;;;;5015382;28;20493;-51
2022/07/02 11:42:59;;;;;;;1.42;0.75;;;;;;;;;;5032558;28;20044;-55
2022/07/02 11:45:25;;;;;;;2.15;0.77;;;;;;;;;;5033321;28;20565;-50
2022/07/02 11:47:52;;;;;;;2.90;0.60;;;;;;;;;;5025107;28;20033;-59
2022/07/02 11:50:35;;;;;;;0.98;0.40;;;;;;;;;;5033029;28;20033;-59
2022/07/02 11:53:02;;;;;;;0.80;0.60;;;;;;;;;;5032838;28;20045;-64
2022/07/02 11:55:28;;;;;;;0.82;0.60;;;;;;;;;;5031633;28;20026;-58
2022/07/02 11:57:54;;;;;;;1.33;0.88;;;;;;;;;;5028288;28;20520;-58
2022/07/02 12:00:20;;;;;;;5.03;0.75;;;;;;;;;;5033140;28;20097;-59
2022/07/02 12:02:46;;;;;;;0.90;0.70;;;;;;;;;;5031321;28;20112;-58
2022/07/02 12:05:18;;;;;;;2.83;0.77;;;;;;;;;;5032556;28;20026;-59
2022/07/02 12:07:45;;;;;;;3.25;0.60;;;;;;;;;;5033486;28;20513;-59
2022/07/02 12:10:12;;;;;;;2.67;0.63;;;;;;;;;;5030808;28;20022;-59
2022/07/02 12:12:38;;;;;;;2.80;1.27;;;;;;;;;;5033179;28;20052;-59
2022/07/02 12:15:04;;;;;;;1.25;0.70;;;;;;;;;;5030266;28;20025;-60
2022/07/02 12:17:31;;;;;;;0.80;0.50;;;;;;;;;;5030282;28;20057;-58
2022/07/02 12:19:57;;;;;;;4.38;0.52;;;;;;;;;;5032497;28;20017;-58
2022/07/02 12:22:23;;;;;;;1.50;0.65;;;;;;;;;;5030337;28;20693;-60
2022/07/02 12:24:54;;;;;;;1.30;0.50;;;;;;;;;;5031071;28;20041;-60
2022/07/02 12:27:22;;;;;;;3.05;0.93;;;;;;;;;;5025603;28;20490;-59
2022/07/02 12:29:58;;;;;;;0.90;0.40;;;;;;;;;;5026729;28;20028;-59
2022/07/02 12:32:25;;;;;;;1.00;0.50;;;;;;;;;;5026381;28;20033;-60
2022/07/02 12:34:51;;;;;;;2.22;0.47;;;;;;;;;;5027725;28;20050;-59
2022/07/02 12:37:25;;;;;;;1.45;0.57;;;;;;;;;;5018029;28;20076;-59
2022/07/02 12:40:11;;;;;;;0.95;0.70;;;;;;;;;;5019276;28;20026;-59
2022/07/02 12:42:47;;;;;;;2.88;0.60;;;;;;;;;;5017314;28;20042;-59
2022/07/02 12:45:29;;;;;;;1.27;0.50;;;;;;;;;;5018262;28;20025;-60
2022/07/02 12:48:10;;;;;;;1.33;0.57;;;;;;;;;;5018044;28;20044;-59
2022/07/02 12:50:38;;;;;;;3.42;1.25;;;;;;;;;;5015307;28;20026;-59
2022/07/02 12:53:05;;;;;;;2.50;0.60;;;;;;;;;;5013828;28;20053;-59
2022/07/02 12:55:30;;;;;;;0.85;0.40;;;;;;;;;;5013119;28;20026;-59
2022/07/02 12:57:58;;;;;;;1.65;0.43;;;;;;;;;;5013857;28;20080;-59
2022/07/02 13:00:24;;;;;;;1.52;0.50;;;;;;;;;;5011729;28;20101;-59
2022/07/02 13:03:00;;;;;;;0.57;0.40;;;;;;;;;;5015439;28;20483;-58
2022/07/02 13:05:26;;;;;;;2.67;0.60;;;;;;;;;;5008613;28;20589;-60
2022/07/02 13:07:52;;;;;;;2.75;0.60;;;;;;;;;;5010767;28;20046;-59
2022/07/02 13:10:18;;;;;;;2.13;0.77;;;;;;;;;;5018049;28;20014;-59
2022/07/02 13:12:44;;;;;;;2.42;0.60;;;;;;;;;;5019932;28;20037;-59
2022/07/02 13:15:10;;;;;;;2.20;0.60;;;;;;;;;;5016450;28;20018;-60
2022/07/02 13:17:36;;;;;;;3.53;0.63;;;;;;;;;;5010356;28;20048;-59
2022/07/02 13:20:03;;;;;;;2.75;0.68;;;;;;;;;;5012023;28;20364;-59
2022/07/02 13:22:29;;;;;;;1.70;0.60;;;;;;;;;;4993408;28;20033;-59
2022/07/02 13:24:56;;;;;;;1.70;0.65;;;;;;;;;;5011223;28;20030;-60
2022/07/02 13:27:22;;;;;;;3.08;0.65;;;;;;;;;;5011108;28;20034;-59
2022/07/02 13:29:49;;;;;;;4.70;0.50;;;;;;;;;;5005589;28;20510;-59
2022/07/02 13:32:15;;;;;;;2.33;0.57;;;;;;;;;;5008499;28;20023;-59
2022/07/02 13:34:41;;;;;;;1.42;0.75;;;;;;;;;;5003356;28;20526;-58
2022/07/02 13:37:07;;;;;;;3.63;0.93;;;;;;;;;;5005345;28;20038;-59
2022/07/02 13:39:33;;;;;;;2.53;0.60;;;;;;;;;;5000549;28;20450;-59
2022/07/02 13:41:59;;;;;;;0.73;0.43;;;;;;;;;;4999294;28;20038;-59
2022/07/02 13:44:26;;;;;;;0.80;0.45;;;;;;;;;;5008448;28;20037;-58
2022/07/02 13:46:52;;;;;;;1.95;0.52;;;;;;;;;;4998321;28;20030;-59
2022/07/02 13:49:18;;;;;;;1.70;0.50;;;;;;;;;;4995918;28;20072;-60
2022/07/02 13:51:44;;;;;;;0.60;0.40;;;;;;;;;;5000651;28;20437;-60
2022/07/02 13:54:10;;;;;;;0.77;0.43;;;;;;;;;;5005853;28;20038;-60
2022/07/02 13:56:36;;;;;;;0.60;0.47;;;;;;;;;;5003814;28;20530;-60
2022/07/02 13:59:03;;;;;;;1.15;0.40;;;;;;;;;;5001231;28;20041;-59
2022/07/02 14:01:29;;;;;;;0.90;0.38;;;;;;;;;;5008676;28;20029;-58
2022/07/02 14:03:55;;;;;;;0.68;0.50;;;;;;;;;;5011298;28;20041;-59
2022/07/02 14:06:21;;;;;;;2.78;0.50;;;;;;;;;;5010821;28;20034;-59
2022/07/02 14:08:48;;;;;;;1.75;0.52;;;;;;;;;;5010467;28;20044;-58
2022/07/02 14:11:14;;;;;;;2.17;0.70;;;;;;;;;;5009051;28;20034;-58
2022/07/02 14:13:39;;;;;;;0.65;0.30;;;;;;;;;;5010072;28;20026;-59
2022/07/02 14:16:06;;;;;;;0.75;0.55;;;;;;;;;;5009219;28;20384;-62
2022/07/02 14:18:32;;;;;;;0.75;0.50;;;;;;;;;;5008072;28;20100;-59
2022/07/02 14:20:58;;;;;;;0.95;0.47;;;;;;;;;;5009671;28;20502;-60
2022/07/02 14:23:24;;;;;;;3.10;1.02;;;;;;;;;;5008550;28;20113;-60
2022/07/02 14:25:50;;;;;;;2.05;0.50;;;;;;;;;;5010306;28;20153;-59
2022/07/02 14:28:18;;;;;;;3.30;0.80;;;;;;;;;;5008371;28;20495;-59
2022/07/02 14:30:44;;;;;;;1.30;0.50;;;;;;;;;;5009524;28;20195;-59
2022/07/02 14:33:10;;;;;;;0.70;0.70;;;;;;;;;;5006358;28;21906;-61
2022/07/02 14:35:36;;;;;;;1.52;0.63;;;;;;;;;;5011094;28;20046;-59
2022/07/02 14:38:02;;;;;;;0.63;0.50;;;;;;;;;;4990212;28;20131;-59
2022/07/02 14:40:28;;;;;;;0.65;0.40;;;;;;;;;;5005905;28;20030;-59
2022/07/02 14:42:54;;;;;;;0.88;0.60;;;;;;;;;;5006880;28;20546;-59
2022/07/02 14:45:20;;;;;;;0.40;0.40;;;;;;;;;;5008630;28;20072;-59
2022/07/02 14:47:47;;;;;;;0.90;0.52;;;;;;;;;;5007548;28;20018;-59
2022/07/02 14:50:13;;;;;;;1.15;0.60;;;;;;;;;;5006233;28;20044;-58
2022/07/02 14:52:39;;;;;;;3.25;0.57;;;;;;;;;;5009512;28;20113;-60